Destiny — WDD8746 — position and weather

sailwx.info

Track history (hours):
 
Tides and Currents Weather Stations Pressure Air Temp Water Temp Dewpoint Dewpoint Depression Visibility Wind Speed Wind Dir Waves Ship Positions

Destiny

Owner: World Yacht Cruises, New York, NY. More information available from US FCC via Universal Licensing System and Coast Guard Vessel Documentation Center.

Last reported at 2017-Oct-09 01:26 UTC. Time now 2017-Nov-22 07:35 UTC.
Position N 40°46' W 074°00'.
Warning: this ship's position is 44 days out of date.

Length 28 m; draft 2 m.

Type: Passenger vessel. MMSI: 367302270.

Date/timePositionNaut miles runAvg speedWind from/ knotsBaromVisibWave heightAir tempDewpointWater temp
2017-Oct-09 01:26N 40°46' W 074°00'0 0.0
2017-Oct-09 01:00N 40°46' W 074°00'0 0.0
2017-Oct-09 00:30N 40°46' W 074°00'0 0.5
2017-Oct-09 00:00N 40°46' W 074°00'2 4.2
2017-Oct-08 23:30N 40°48' W 073°59'2 4.2
2017-Oct-08 23:00N 40°46' W 074°00'0 0.0
2017-Oct-08 22:30N 40°46' W 074°00'0 0.3
2017-Oct-08 22:00N 40°46' W 074°00'1 2.9
2017-Oct-08 21:30N 40°47' W 073°60'1 2.9
2017-Oct-08 21:00N 40°46' W 074°00'0 0.0
2017-Oct-08 20:30N 40°46' W 074°00'0 0.0
2017-Oct-08 20:00N 40°46' W 074°00'0 0.0
2017-Oct-08 19:30N 40°46' W 074°00'0 0.0
2017-Oct-08 19:00N 40°46' W 074°00'0 0.0
2017-Oct-08 18:29N 40°46' W 074°00'0 0.0
2017-Oct-08 18:00N 40°46' W 074°00'2 4.5
2017-Oct-08 17:30N 40°48' W 073°59'2 4.5
2017-Oct-08 17:00N 40°46' W 074°00'0 0.0
2017-Oct-08 16:30N 40°46' W 074°00'0 0.0
2017-Oct-08 16:00N 40°46' W 074°00'0 0.0
2017-Oct-08 15:30N 40°46' W 074°00'0 0.0
2017-Oct-08 15:00N 40°46' W 074°00'0 0.0
2017-Oct-08 14:30N 40°46' W 074°00'0 0.0
2017-Oct-08 14:00N 40°46' W 074°00'0 0.0
2017-Oct-08 02:05N 40°46' W 074°00'0 2.0
2017-Oct-08 02:00N 40°46' W 074°00'2 4.0
2017-Oct-08 01:30N 40°48' W 073°59'2 2.1
2017-Oct-08 00:30N 40°46' W 074°00'0 0.4
2017-Oct-08 00:00N 40°46' W 074°00'2 3.4
2017-Oct-07 23:30N 40°47' W 073°59'2 3.6
2017-Oct-07 23:00N 40°46' W 074°00'0 0.0
2017-Oct-07 22:30N 40°46' W 074°00'0 1.0
2017-Oct-07 22:00N 40°46' W 074°00'1 2.0
2017-Oct-07 21:30N 40°47' W 073°60'1 2.8
2017-Oct-07 21:00N 40°46' W 074°00'0 0.0
2017-Oct-07 20:30N 40°46' W 074°00'1 1.8
2017-Oct-07 20:00N 40°47' W 073°60'1 1.2
2017-Oct-07 19:30N 40°47' W 073°59'1 2.9
2017-Oct-07 19:00N 40°46' W 074°00'0 0.1
2017-Oct-07 18:30N 40°46' W 074°00'0 0.5
2017-Oct-07 18:00N 40°46' W 074°00'2 4.8
2017-Oct-07 17:30N 40°48' W 073°59'2 4.8
2017-Oct-07 17:00N 40°46' W 074°00'0 0.0
2017-Oct-07 16:30N 40°46' W 074°00'0 0.0
2017-Oct-07 15:59N 40°46' W 074°00'0 0.0
2017-Oct-07 15:30N 40°46' W 074°00'0 0.0
2017-Oct-07 15:00N 40°46' W 074°00'0 0.0
2017-Oct-07 14:29N 40°46' W 074°00'0 0.0
2017-Oct-07 14:00N 40°46' W 074°00'0 0.0
2017-Oct-07 13:30N 40°46' W 074°00'0 0.0
2017-Oct-07 02:15N 40°46' W 074°00'0 0.0
2017-Oct-07 02:00N 40°46' W 074°00'0 0.0
2017-Oct-07 01:30N 40°46' W 074°00'0 0.0
2017-Oct-07 01:00N 40°46' W 074°00'0 0.0
2017-Oct-07 00:30N 40°46' W 074°00'0 0.1
2017-Oct-07 00:00N 40°46' W 074°00'2 4.2
2017-Oct-06 23:30N 40°48' W 073°59'2 4.3
2017-Oct-06 23:00N 40°46' W 074°00'0 0.0
2017-Oct-06 22:30N 40°46' W 074°00'0 0.3
2017-Oct-06 22:00N 40°46' W 074°00'1 1.0
2017-Oct-06 21:30N 40°46' W 074°00'1 1.2
2017-Oct-06 21:00N 40°46' W 074°00'0 0.0
2017-Oct-06 20:30N 40°46' W 074°00'0 0.5
2017-Oct-06 20:00N 40°46' W 074°00'1 2.4
2017-Oct-06 19:30N 40°47' W 073°60'1 2.6
2017-Oct-06 19:00N 40°46' W 074°00'0 0.0
2017-Oct-06 18:30N 40°46' W 074°00'0 0.5
2017-Oct-06 18:00N 40°46' W 074°00'2 4.0
2017-Oct-06 17:30N 40°48' W 073°59'2 4.2
2017-Oct-06 17:00N 40°46' W 074°00'0 0.0
2017-Oct-06 16:30N 40°46' W 074°00'0 0.0
2017-Oct-06 16:00N 40°46' W 074°00'0 0.0
2017-Oct-06 15:30N 40°46' W 074°00'0 0.0
2017-Oct-06 15:00N 40°46' W 074°00'0 0.0
2017-Oct-06 14:30N 40°46' W 074°00'0 0.0
2017-Oct-06 00:06N 40°46' W 074°00'0 0.1
2017-Oct-06 00:00N 40°46' W 074°00'2 3.4
2017-Oct-05 23:30N 40°47' W 073°59'2 3.4
2017-Oct-05 23:00N 40°46' W 074°00'0 0.0
2017-Oct-05 22:30N 40°46' W 074°00'0 0.0
2017-Oct-05 22:00N 40°46' W 074°00'2 3.1
2017-Oct-05 21:30N 40°47' W 073°59'2 3.1
2017-Oct-05 21:00N 40°46' W 074°00'  
2017-Oct-02 00:02N 40°46' W 074°00'0 1.1
2017-Oct-02 00:00N 40°46' W 074°00'2 4.5
2017-Oct-01 23:29N 40°48' W 073°59'2 4.9
2017-Oct-01 23:00N 40°46' W 074°00'0 0.0
2017-Oct-01 22:30N 40°46' W 074°00'0 0.1
2017-Oct-01 22:00N 40°46' W 074°00'2 3.9
2017-Oct-01 21:30N 40°48' W 073°59'2 4.1
2017-Oct-01 21:00N 40°46' W 074°00'0 0.0
2017-Oct-01 20:30N 40°46' W 074°00'0 0.2
2017-Oct-01 20:00N 40°46' W 074°00'2 4.2
2017-Oct-01 19:30N 40°48' W 073°59'2 4.1
2017-Oct-01 19:00N 40°46' W 074°00'0 0.0
2017-Oct-01 18:30N 40°46' W 074°00'0 0.6
2017-Oct-01 18:00N 40°46' W 074°00'2 3.1
2017-Oct-01 17:30N 40°47' W 073°59'2 3.2
2017-Oct-01 17:00N 40°46' W 074°00'0 0.0
2017-Oct-01 16:30N 40°46' W 074°00'0 0.0
2017-Oct-01 16:00N 40°46' W 074°00'0 0.0
2017-Oct-01 15:30N 40°46' W 074°00'0 0.0
2017-Oct-01 15:00N 40°46' W 074°00'0 0.0
2017-Oct-01 14:30N 40°46' W 074°00'0 0.0
2017-Sep-30 00:42N 40°46' W 074°00'0 0.0
2017-Sep-30 00:30N 40°46' W 074°00'0 0.8
2017-Sep-30 00:00N 40°46' W 074°00'2 3.0
2017-Sep-29 23:30N 40°47' W 073°59'2 3.8
2017-Sep-29 23:00N 40°46' W 074°00'0 0.0
2017-Sep-29 22:30N 40°46' W 074°00'0 0.0
2017-Sep-29 22:00N 40°46' W 074°00'0 0.0
2017-Sep-29 21:30N 40°46' W 074°00'0 0.0
2017-Sep-29 21:00N 40°46' W 074°00'0 0.0
2017-Sep-29 20:30N 40°46' W 074°00'0 0.0
2017-Sep-29 20:00N 40°46' W 074°00'0 0.0
2017-Sep-29 19:30N 40°46' W 074°00'0 0.0
2017-Sep-29 19:00N 40°46' W 074°00'0 0.0
2017-Sep-29 18:30N 40°46' W 074°00'0 0.0
2017-Sep-29 18:00N 40°46' W 074°00'2 4.8
2017-Sep-29 17:30N 40°48' W 073°59'2 5.0
2017-Sep-29 17:00N 40°46' W 074°00'0 0.0
2017-Sep-29 16:30N 40°46' W 074°00'0 0.0
2017-Sep-29 16:00N 40°46' W 074°00'0 0.0
2017-Sep-29 15:30N 40°46' W 074°00'0 0.0
2017-Sep-29 15:00N 40°46' W 074°00'0 0.0
2017-Sep-29 14:30N 40°46' W 074°00'0 0.0
2017-Sep-29 14:00N 40°46' W 074°00'  
Track history (hours):
 
Tides and Currents Weather Stations Pressure Air Temp Water Temp Dewpoint Dewpoint Depression Visibility Wind Speed Wind Dir Waves Ship Positions

Destiny

Owner: World Yacht Cruises, New York, NY. More information available from US FCC via Universal Licensing System and Coast Guard Vessel Documentation Center.

Last reported at 2017-Oct-09 01:26 UTC. Time now 2017-Nov-22 07:35 UTC.
Position N 40°46' W 074°00'.
Warning: this ship's position is 44 days out of date.

Length 28 m; draft 2 m.

Type: Passenger vessel. MMSI: 367302270.

Date/timePositionNaut miles runAvg speedWind from/ knotsBaromVisibWave heightAir tempDewpointWater temp
2017-Oct-09 01:26N 40°46' W 074°00'0 0.0
2017-Oct-09 01:00N 40°46' W 074°00'0 0.0
2017-Oct-09 00:30N 40°46' W 074°00'0 0.5
2017-Oct-09 00:00N 40°46' W 074°00'2 4.2
2017-Oct-08 23:30N 40°48' W 073°59'2 4.2
2017-Oct-08 23:00N 40°46' W 074°00'0 0.0
2017-Oct-08 22:30N 40°46' W 074°00'0 0.3
2017-Oct-08 22:00N 40°46' W 074°00'1 2.9
2017-Oct-08 21:30N 40°47' W 073°60'1 2.9
2017-Oct-08 21:00N 40°46' W 074°00'0 0.0
2017-Oct-08 20:30N 40°46' W 074°00'0 0.0
2017-Oct-08 20:00N 40°46' W 074°00'0 0.0
2017-Oct-08 19:30N 40°46' W 074°00'0 0.0
2017-Oct-08 19:00N 40°46' W 074°00'0 0.0
2017-Oct-08 18:29N 40°46' W 074°00'0 0.0
2017-Oct-08 18:00N 40°46' W 074°00'2 4.5
2017-Oct-08 17:30N 40°48' W 073°59'2 4.5
2017-Oct-08 17:00N 40°46' W 074°00'0 0.0
2017-Oct-08 16:30N 40°46' W 074°00'0 0.0
2017-Oct-08 16:00N 40°46' W 074°00'0 0.0
2017-Oct-08 15:30N 40°46' W 074°00'0 0.0
2017-Oct-08 15:00N 40°46' W 074°00'0 0.0
2017-Oct-08 14:30N 40°46' W 074°00'0 0.0
2017-Oct-08 14:00N 40°46' W 074°00'0 0.0
2017-Oct-08 02:05N 40°46' W 074°00'0 2.0
2017-Oct-08 02:00N 40°46' W 074°00'2 4.0
2017-Oct-08 01:30N 40°48' W 073°59'2 2.1
2017-Oct-08 00:30N 40°46' W 074°00'0 0.4
2017-Oct-08 00:00N 40°46' W 074°00'2 3.4
2017-Oct-07 23:30N 40°47' W 073°59'2 3.6
2017-Oct-07 23:00N 40°46' W 074°00'0 0.0
2017-Oct-07 22:30N 40°46' W 074°00'0 1.0
2017-Oct-07 22:00N 40°46' W 074°00'1 2.0
2017-Oct-07 21:30N 40°47' W 073°60'1 2.8
2017-Oct-07 21:00N 40°46' W 074°00'0 0.0
2017-Oct-07 20:30N 40°46' W 074°00'1 1.8
2017-Oct-07 20:00N 40°47' W 073°60'1 1.2
2017-Oct-07 19:30N 40°47' W 073°59'1 2.9
2017-Oct-07 19:00N 40°46' W 074°00'0 0.1
2017-Oct-07 18:30N 40°46' W 074°00'0 0.5
2017-Oct-07 18:00N 40°46' W 074°00'2 4.8
2017-Oct-07 17:30N 40°48' W 073°59'2 4.8
2017-Oct-07 17:00N 40°46' W 074°00'0 0.0
2017-Oct-07 16:30N 40°46' W 074°00'0 0.0
2017-Oct-07 15:59N 40°46' W 074°00'0 0.0
2017-Oct-07 15:30N 40°46' W 074°00'0 0.0
2017-Oct-07 15:00N 40°46' W 074°00'0 0.0
2017-Oct-07 14:29N 40°46' W 074°00'0 0.0
2017-Oct-07 14:00N 40°46' W 074°00'0 0.0
2017-Oct-07 13:30N 40°46' W 074°00'0 0.0
2017-Oct-07 02:15N 40°46' W 074°00'0 0.0
2017-Oct-07 02:00N 40°46' W 074°00'0 0.0
2017-Oct-07 01:30N 40°46' W 074°00'0 0.0
2017-Oct-07 01:00N 40°46' W 074°00'0 0.0
2017-Oct-07 00:30N 40°46' W 074°00'0 0.1
2017-Oct-07 00:00N 40°46' W 074°00'2 4.2
2017-Oct-06 23:30N 40°48' W 073°59'2 4.3
2017-Oct-06 23:00N 40°46' W 074°00'0 0.0
2017-Oct-06 22:30N 40°46' W 074°00'0 0.3
2017-Oct-06 22:00N 40°46' W 074°00'1 1.0
2017-Oct-06 21:30N 40°46' W 074°00'1 1.2
2017-Oct-06 21:00N 40°46' W 074°00'0 0.0
2017-Oct-06 20:30N 40°46' W 074°00'0 0.5
2017-Oct-06 20:00N 40°46' W 074°00'1 2.4
2017-Oct-06 19:30N 40°47' W 073°60'1 2.6
2017-Oct-06 19:00N 40°46' W 074°00'0 0.0
2017-Oct-06 18:30N 40°46' W 074°00'0 0.5
2017-Oct-06 18:00N 40°46' W 074°00'2 4.0
2017-Oct-06 17:30N 40°48' W 073°59'2 4.2
2017-Oct-06 17:00N 40°46' W 074°00'0 0.0
2017-Oct-06 16:30N 40°46' W 074°00'0 0.0
2017-Oct-06 16:00N 40°46' W 074°00'0 0.0
2017-Oct-06 15:30N 40°46' W 074°00'0 0.0
2017-Oct-06 15:00N 40°46' W 074°00'0 0.0
2017-Oct-06 14:30N 40°46' W 074°00'0 0.0
2017-Oct-06 00:06N 40°46' W 074°00'0 0.1
2017-Oct-06 00:00N 40°46' W 074°00'2 3.4
2017-Oct-05 23:30N 40°47' W 073°59'2 3.4
2017-Oct-05 23:00N 40°46' W 074°00'0 0.0
2017-Oct-05 22:30N 40°46' W 074°00'0 0.0
2017-Oct-05 22:00N 40°46' W 074°00'2 3.1
2017-Oct-05 21:30N 40°47' W 073°59'2 3.1
2017-Oct-05 21:00N 40°46' W 074°00'  
2017-Oct-02 00:02N 40°46' W 074°00'0 1.1
2017-Oct-02 00:00N 40°46' W 074°00'2 4.5
2017-Oct-01 23:29N 40°48' W 073°59'2 4.9
2017-Oct-01 23:00N 40°46' W 074°00'0 0.0
2017-Oct-01 22:30N 40°46' W 074°00'0 0.1
2017-Oct-01 22:00N 40°46' W 074°00'2 3.9
2017-Oct-01 21:30N 40°48' W 073°59'2 4.1
2017-Oct-01 21:00N 40°46' W 074°00'0 0.0
2017-Oct-01 20:30N 40°46' W 074°00'0 0.2
2017-Oct-01 20:00N 40°46' W 074°00'2 4.2
2017-Oct-01 19:30N 40°48' W 073°59'2 4.1
2017-Oct-01 19:00N 40°46' W 074°00'0 0.0
2017-Oct-01 18:30N 40°46' W 074°00'0 0.6
2017-Oct-01 18:00N 40°46' W 074°00'2 3.1
2017-Oct-01 17:30N 40°47' W 073°59'2 3.2
2017-Oct-01 17:00N 40°46' W 074°00'0 0.0
2017-Oct-01 16:30N 40°46' W 074°00'0 0.0
2017-Oct-01 16:00N 40°46' W 074°00'0 0.0
2017-Oct-01 15:30N 40°46' W 074°00'0 0.0
2017-Oct-01 15:00N 40°46' W 074°00'0 0.0
2017-Oct-01 14:30N 40°46' W 074°00'0 0.0
2017-Sep-30 00:42N 40°46' W 074°00'0 0.0
2017-Sep-30 00:30N 40°46' W 074°00'0 0.8
2017-Sep-30 00:00N 40°46' W 074°00'2 3.0
2017-Sep-29 23:30N 40°47' W 073°59'2 3.8
2017-Sep-29 23:00N 40°46' W 074°00'0 0.0
2017-Sep-29 22:30N 40°46' W 074°00'0 0.0
2017-Sep-29 22:00N 40°46' W 074°00'0 0.0
2017-Sep-29 21:30N 40°46' W 074°00'0 0.0
2017-Sep-29 21:00N 40°46' W 074°00'0 0.0
2017-Sep-29 20:30N 40°46' W 074°00'0 0.0
2017-Sep-29 20:00N 40°46' W 074°00'0 0.0
2017-Sep-29 19:30N 40°46' W 074°00'0 0.0
2017-Sep-29 19:00N 40°46' W 074°00'0 0.0
2017-Sep-29 18:30N 40°46' W 074°00'0 0.0
2017-Sep-29 18:00N 40°46' W 074°00'2 4.8
2017-Sep-29 17:30N 40°48' W 073°59'2 5.0
2017-Sep-29 17:00N 40°46' W 074°00'0 0.0
2017-Sep-29 16:30N 40°46' W 074°00'0 0.0
2017-Sep-29 16:00N 40°46' W 074°00'0 0.0
2017-Sep-29 15:30N 40°46' W 074°00'0 0.0
2017-Sep-29 15:00N 40°46' W 074°00'0 0.0
2017-Sep-29 14:30N 40°46' W 074°00'0 0.0
2017-Sep-29 14:00N 40°46' W 074°00'  

Dump ship's entire track history